createdAt,value
2018-03-06T00:00:13.665Z,20.33
2018-03-06T00:02:44.663Z,20.47
2018-03-06T00:05:15.240Z,21.70
2018-03-06T00:07:45.767Z,21.47
2018-03-06T00:10:16.784Z,21.77
2018-03-06T00:12:47.428Z,22.27
2018-03-06T00:15:17.365Z,21.43
2018-03-06T00:17:47.903Z,21.07
2018-03-06T00:20:19.288Z,20.43
2018-03-06T00:22:50.822Z,21.40
2018-03-06T00:25:21.107Z,21.03
2018-03-06T00:27:51.737Z,21.33
2018-03-06T00:30:22.403Z,20.00
2018-03-06T00:32:52.495Z,21.43
2018-03-06T00:35:22.982Z,20.37
2018-03-06T00:37:53.605Z,21.23
2018-03-06T00:40:24.556Z,21.03
2018-03-06T00:42:55.525Z,20.80
2018-03-06T00:45:26.232Z,19.70
2018-03-06T00:47:56.596Z,19.83
2018-03-06T00:50:26.743Z,21.67
2018-03-06T00:52:57.806Z,20.53
2018-03-06T00:55:28.382Z,22.00
2018-03-06T00:57:59.074Z,20.73
2018-03-06T01:00:30.692Z,22.60
2018-03-06T01:03:01.256Z,21.60
2018-03-06T01:05:32.322Z,22.67
2018-03-06T01:08:02.456Z,24.03
2018-03-06T01:10:33.400Z,23.67
2018-03-06T01:13:03.310Z,23.40
2018-03-06T01:15:33.848Z,24.27
2018-03-06T01:18:05.197Z,24.17
2018-03-06T01:20:36.727Z,24.43
2018-03-06T01:23:07.905Z,25.00
2018-03-06T01:25:39.108Z,24.27
2018-03-06T01:28:09.972Z,23.73
2018-03-06T01:30:41.018Z,22.60
2018-03-06T01:33:12.022Z,22.93
2018-03-06T01:35:42.704Z,21.87
2018-03-06T01:38:13.396Z,22.43
2018-03-06T01:40:43.977Z,20.50
2018-03-06T01:43:14.705Z,22.67
2018-03-06T01:45:45.986Z,23.47
2018-03-06T01:48:16.675Z,21.97
2018-03-06T01:50:47.417Z,22.77
2018-03-06T01:53:17.834Z,24.00
2018-03-06T01:55:48.350Z,23.40
2018-03-06T01:58:19.325Z,24.93
2018-03-06T02:00:50.356Z,24.27
2018-03-06T02:03:21.000Z,23.37
2018-03-06T02:05:51.905Z,22.57
2018-03-06T02:08:23.449Z,25.23
2018-03-06T02:10:54.100Z,25.80
2018-03-06T02:13:24.927Z,27.60
2018-03-06T02:15:55.729Z,27.73
2018-03-06T02:18:26.642Z,27.00
2018-03-06T02:20:57.456Z,25.53
2018-03-06T02:23:27.965Z,22.80
2018-03-06T02:25:58.801Z,23.17
2018-03-06T02:28:29.889Z,25.70
2018-03-06T02:31:00.792Z,27.80
2018-03-06T02:33:31.236Z,29.97
2018-03-06T02:36:01.662Z,30.50
2018-03-06T02:38:32.304Z,31.50
2018-03-06T02:41:03.132Z,31.87
2018-03-06T02:43:34.338Z,30.90
2018-03-06T02:46:10.924Z,31.40
2018-03-06T02:48:42.786Z,31.90
2018-03-06T02:51:13.547Z,31.50
2018-03-06T02:53:44.269Z,35.10
2018-03-06T02:56:14.976Z,38.43
2018-03-06T02:58:45.600Z,38.33
2018-03-06T03:01:16.146Z,36.37
2018-03-06T03:03:47.285Z,36.27
2018-03-06T03:06:17.416Z,34.30
2018-03-06T03:08:47.814Z,36.40
2018-03-06T03:11:18.583Z,33.67
2018-03-06T03:13:49.711Z,31.80
2018-03-06T03:16:20.254Z,34.03
2018-03-06T03:18:50.988Z,33.97
2018-03-06T03:21:22.009Z,36.07
2018-03-06T03:23:52.549Z,38.77
2018-03-06T03:26:23.216Z,37.20
2018-03-06T03:28:54.643Z,31.57
2018-03-06T03:31:24.656Z,31.00
2018-03-06T03:33:55.692Z,28.00
2018-03-06T03:36:26.493Z,35.50
2018-03-06T03:38:57.189Z,31.37
2018-03-06T03:41:28.151Z,28.07
2018-03-06T03:43:58.517Z,29.67
2018-03-06T03:46:29.526Z,30.20
2018-03-06T03:49:01.686Z,30.20
2018-03-06T03:51:32.603Z,38.90
2018-03-06T03:54:03.404Z,31.13
2018-03-06T03:56:33.862Z,35.43
2018-03-06T03:59:04.570Z,31.73
2018-03-06T04:01:35.728Z,36.00
2018-03-06T04:04:06.758Z,36.40
2018-03-06T04:06:37.344Z,31.10
2018-03-06T04:09:08.057Z,31.60
2018-03-06T04:11:38.307Z,30.50
2018-03-06T04:14:09.192Z,33.57
2018-03-06T04:16:39.606Z,33.60
2018-03-06T04:19:10.335Z,35.40
2018-03-06T04:21:41.686Z,34.73
2018-03-06T04:24:12.809Z,33.27
2018-03-06T04:26:44.064Z,34.37
2018-03-06T04:29:14.997Z,33.57
2018-03-06T04:31:45.658Z,34.17
2018-03-06T04:34:16.615Z,33.80
2018-03-06T04:36:47.568Z,33.30
2018-03-06T04:39:18.303Z,33.27
2018-03-06T04:41:49.308Z,34.33
2018-03-06T04:44:19.883Z,33.80
2018-03-06T04:46:50.544Z,32.83
2018-03-06T04:49:21.114Z,34.30
2018-03-06T04:51:52.832Z,34.93
2018-03-06T04:54:23.899Z,35.20
2018-03-06T04:56:54.898Z,34.33
2018-03-06T04:59:25.869Z,35.10
2018-03-06T05:01:56.378Z,36.00
2018-03-06T05:04:27.654Z,34.67
2018-03-06T05:06:58.440Z,32.40
2018-03-06T05:09:29.101Z,33.97
2018-03-06T05:11:59.984Z,33.77
2018-03-06T05:14:31.047Z,31.43
2018-03-06T05:17:01.823Z,29.40
2018-03-06T05:19:32.174Z,30.57
2018-03-06T05:22:02.816Z,31.80
2018-03-06T05:24:33.021Z,35.27
2018-03-06T05:27:03.499Z,30.93
2018-03-06T05:29:34.120Z,32.93
2018-03-06T05:32:04.688Z,30.13
2018-03-06T05:34:35.652Z,37.60
2018-03-06T05:37:06.571Z,36.13
2018-03-06T05:39:37.279Z,39.33
2018-03-06T05:42:08.473Z,35.50
2018-03-06T05:44:39.087Z,32.80
2018-03-06T05:47:09.643Z,37.23
2018-03-06T05:49:40.238Z,38.00
2018-03-06T05:52:10.778Z,36.27
2018-03-06T05:54:41.538Z,29.73
2018-03-06T05:57:12.662Z,35.00
2018-03-06T05:59:43.084Z,30.93
2018-03-06T06:02:13.517Z,35.30
2018-03-06T06:04:44.980Z,32.80
2018-03-06T06:07:16.105Z,34.77
2018-03-06T06:09:46.494Z,33.60
2018-03-06T06:12:16.928Z,34.80
2018-03-06T06:14:47.792Z,28.87
2018-03-06T06:17:19.792Z,28.23
2018-03-06T06:19:50.806Z,33.83
2018-03-06T06:22:21.632Z,35.90
2018-03-06T06:24:52.923Z,33.03
2018-03-06T06:27:23.733Z,36.83
2018-03-06T06:29:54.504Z,33.97
2018-03-06T06:32:25.647Z,34.93
2018-03-06T06:34:56.201Z,33.50
2018-03-06T06:37:27.003Z,35.97
2018-03-06T06:39:58.257Z,35.93
2018-03-06T06:42:28.132Z,37.07
2018-03-06T06:44:58.872Z,37.30
2018-03-06T06:47:29.496Z,35.10
2018-03-06T06:49:59.675Z,36.80
2018-03-06T06:52:30.985Z,37.23
2018-03-06T06:55:02.452Z,35.70
2018-03-06T06:57:33.264Z,31.77
2018-03-06T07:00:04.025Z,31.33
2018-03-06T07:02:34.859Z,34.20
2018-03-06T07:05:05.355Z,31.83
2018-03-06T07:07:36.091Z,34.90
2018-03-06T07:10:06.792Z,29.80
2018-03-06T07:12:37.356Z,32.63
2018-03-06T07:15:08.190Z,34.57
2018-03-06T07:17:38.405Z,31.47
2018-03-06T07:20:08.732Z,37.87
2018-03-06T07:22:38.744Z,34.83
2018-03-06T07:25:09.594Z,34.80
2018-03-06T07:27:40.487Z,30.10
2018-03-06T07:30:10.555Z,29.27
2018-03-06T07:32:41.083Z,31.50
2018-03-06T07:35:10.985Z,30.53
2018-03-06T07:37:41.710Z,27.33
2018-03-06T07:40:12.165Z,23.23
2018-03-06T07:42:43.150Z,27.87
2018-03-06T07:45:13.117Z,25.77
2018-03-06T07:47:43.627Z,28.43
2018-03-06T07:50:13.441Z,28.57
2018-03-06T07:52:44.144Z,24.00
2018-03-06T07:55:14.855Z,25.27
2018-03-06T07:57:46.017Z,23.73
2018-03-06T08:00:16.791Z,27.77
2018-03-06T08:02:47.291Z,25.47
2018-03-06T08:05:17.541Z,27.63
2018-03-06T08:07:49.208Z,28.13
2018-03-06T08:10:20.229Z,27.10
2018-03-06T08:12:51.631Z,35.73
2018-03-06T08:15:22.433Z,25.13
2018-03-06T08:17:53.529Z,25.57
2018-03-06T08:20:24.099Z,24.93
2018-03-06T08:22:55.441Z,29.63
2018-03-06T08:25:26.387Z,25.73
2018-03-06T08:27:57.471Z,29.17
2018-03-06T08:30:28.987Z,29.63
2018-03-06T08:32:59.007Z,27.73
2018-03-06T08:35:29.910Z,29.80
2018-03-06T08:38:01.323Z,26.07
2018-03-06T08:40:32.216Z,22.33
2018-03-06T08:43:02.854Z,23.77
2018-03-06T08:45:33.688Z,26.57
2018-03-06T08:48:04.318Z,22.97
2018-03-06T08:50:34.861Z,27.23
2018-03-06T08:53:05.830Z,26.97
2018-03-06T08:55:36.843Z,27.10
2018-03-06T08:58:07.963Z,29.77
2018-03-06T09:00:38.768Z,29.73
2018-03-06T09:03:09.144Z,29.27
2018-03-06T09:05:39.983Z,29.57
2018-03-06T09:08:11.064Z,27.40
2018-03-06T09:10:41.653Z,21.17
2018-03-06T09:13:11.664Z,24.03
2018-03-06T09:15:42.601Z,22.50
2018-03-06T09:18:13.090Z,18.10
2018-03-06T09:20:43.855Z,18.53
2018-03-06T09:23:14.778Z,18.43
2018-03-06T09:25:45.896Z,19.10
2018-03-06T09:28:16.560Z,20.30
2018-03-06T09:30:47.508Z,17.90
2018-03-06T09:33:18.153Z,20.33
2018-03-06T09:35:48.585Z,22.37
2018-03-06T09:38:19.898Z,23.53
2018-03-06T09:40:50.558Z,20.40
2018-03-06T09:43:21.000Z,21.37
2018-03-06T09:45:51.614Z,22.20
2018-03-06T09:48:22.623Z,18.17
2018-03-06T09:50:52.568Z,17.60
2018-03-06T09:53:23.078Z,21.27
2018-03-06T09:55:54.648Z,19.77
2018-03-06T09:58:25.291Z,20.37
2018-03-06T10:00:56.227Z,21.37
2018-03-06T10:03:27.137Z,21.57
2018-03-06T10:05:58.320Z,20.73
2018-03-06T10:08:28.906Z,25.10
2018-03-06T10:10:59.737Z,24.77
2018-03-06T10:13:30.492Z,19.63
2018-03-06T10:16:01.153Z,18.40
2018-03-06T10:18:31.755Z,20.20
2018-03-06T10:21:02.282Z,20.90
2018-03-06T10:23:33.653Z,20.80
2018-03-06T10:26:04.533Z,22.20
2018-03-06T10:28:35.298Z,18.87
2018-03-06T10:31:06.270Z,19.93
2018-03-06T10:33:37.424Z,20.70
2018-03-06T10:36:07.734Z,22.67
2018-03-06T10:38:38.295Z,24.40
2018-03-06T10:41:08.811Z,19.40
2018-03-06T10:43:39.656Z,21.50
2018-03-06T10:46:10.566Z,19.43
2018-03-06T10:48:41.088Z,17.90
2018-03-06T10:51:11.608Z,24.13
2018-03-06T10:53:42.657Z,22.23
2018-03-06T10:56:13.684Z,17.63
2018-03-06T10:58:44.313Z,19.27
2018-03-06T11:01:31.019Z,18.43
2018-03-06T11:04:02.662Z,17.90
2018-03-06T11:06:33.098Z,17.00
2018-03-06T11:09:03.558Z,16.17
2018-03-06T11:11:34.196Z,14.27
2018-03-06T11:14:04.805Z,15.50
2018-03-06T11:16:35.908Z,16.43
2018-03-06T11:19:06.522Z,16.37
2018-03-06T11:21:37.428Z,15.17
2018-03-06T11:24:08.195Z,15.50
2018-03-06T11:26:38.603Z,14.77
2018-03-06T11:29:09.227Z,15.37
2018-03-06T11:31:39.952Z,14.30
2018-03-06T11:34:10.973Z,13.87
2018-03-06T11:36:41.662Z,13.90
2018-03-06T11:39:12.602Z,14.60
2018-03-06T11:41:43.400Z,14.80
2018-03-06T11:44:14.513Z,15.20
2018-03-06T11:46:45.140Z,17.40
2018-03-06T11:49:16.014Z,17.83
2018-03-06T11:51:47.305Z,17.33
2018-03-06T11:54:18.145Z,16.53
2018-03-06T11:56:48.523Z,17.80
2018-03-06T11:59:18.959Z,14.33
2018-03-06T12:01:49.499Z,14.50
2018-03-06T12:04:20.214Z,13.93
2018-03-06T12:06:50.768Z,15.73
2018-03-06T12:09:21.177Z,14.33
2018-03-06T12:11:51.842Z,15.27
2018-03-06T12:14:22.226Z,15.97
2018-03-06T12:16:52.761Z,14.70
2018-03-06T12:19:23.651Z,16.80
2018-03-06T12:21:54.440Z,17.47
2018-03-06T12:24:24.855Z,15.33
2018-03-06T12:26:55.601Z,16.20
2018-03-06T12:29:26.304Z,16.60
2018-03-06T12:31:56.592Z,18.43
2018-03-06T12:34:27.731Z,18.30
2018-03-06T12:36:59.002Z,19.00
2018-03-06T12:39:29.210Z,19.10
2018-03-06T12:42:00.233Z,17.57
2018-03-06T12:44:30.952Z,19.87
2018-03-06T12:47:02.122Z,21.50
2018-03-06T12:49:32.614Z,19.47
2018-03-06T12:52:03.590Z,16.43
2018-03-06T12:54:34.447Z,19.43
2018-03-06T12:57:05.446Z,17.33
2018-03-06T12:59:35.732Z,20.83
2018-03-06T13:02:06.893Z,17.90
2018-03-06T13:04:37.528Z,22.03
2018-03-06T13:07:08.895Z,20.13
2018-03-06T13:09:39.771Z,21.97
2018-03-06T13:12:09.625Z,22.83
2018-03-06T13:14:40.148Z,21.93
2018-03-06T13:17:11.382Z,23.50
2018-03-06T13:19:41.526Z,22.70
2018-03-06T13:22:12.358Z,23.73
2018-03-06T13:24:42.898Z,23.33
2018-03-06T13:27:13.621Z,23.27
2018-03-06T13:29:44.435Z,25.73
2018-03-06T13:32:15.004Z,26.50
2018-03-06T13:34:45.789Z,22.30
2018-03-06T13:37:16.591Z,24.33
2018-03-06T13:39:47.169Z,21.50
2018-03-06T13:42:17.796Z,21.90
2018-03-06T13:44:48.339Z,22.07
2018-03-06T13:47:19.159Z,22.23
2018-03-06T13:49:49.405Z,23.60
2018-03-06T13:52:20.011Z,22.53
2018-03-06T13:54:50.473Z,24.67
2018-03-06T13:57:20.916Z,22.50
2018-03-06T13:59:52.143Z,23.73
2018-03-06T14:02:22.663Z,22.47
2018-03-06T14:04:52.498Z,22.20
2018-03-06T14:07:22.927Z,21.83
2018-03-06T14:09:53.623Z,22.57
2018-03-06T14:12:24.456Z,21.97
2018-03-06T14:14:55.789Z,21.67
2018-03-06T14:17:26.776Z,21.60
2018-03-06T14:19:57.464Z,21.93
2018-03-06T14:22:28.131Z,22.07
2018-03-06T14:24:58.462Z,23.00
2018-03-06T14:27:29.388Z,24.87
2018-03-06T14:30:00.350Z,22.73
2018-03-06T14:32:31.180Z,24.03
2018-03-06T14:35:02.016Z,22.63
2018-03-06T14:37:33.185Z,22.33
2018-03-06T14:40:04.153Z,20.57
2018-03-06T14:42:35.085Z,24.03
2018-03-06T14:45:06.443Z,25.10
2018-03-06T14:47:36.413Z,23.57
2018-03-06T14:50:07.213Z,23.43
2018-03-06T14:52:38.346Z,25.07
2018-03-06T14:55:08.973Z,25.47
2018-03-06T14:57:39.966Z,26.07
2018-03-06T15:00:10.071Z,26.80
2018-03-06T15:02:40.296Z,27.43
2018-03-06T15:05:10.911Z,25.33
2018-03-06T15:07:41.437Z,23.70
2018-03-06T15:10:12.092Z,26.53
2018-03-06T15:12:42.684Z,26.03
2018-03-06T15:15:13.969Z,25.37
2018-03-06T15:17:44.361Z,26.13
2018-03-06T15:20:14.772Z,25.83
2018-03-06T15:22:45.416Z,25.33
2018-03-06T15:25:16.452Z,25.37
2018-03-06T15:27:47.086Z,26.00
2018-03-06T15:30:18.070Z,25.43
2018-03-06T15:32:48.817Z,26.03
2018-03-06T15:35:19.330Z,27.23
2018-03-06T15:37:49.756Z,27.27
2018-03-06T15:40:20.380Z,28.63
2018-03-06T15:42:51.224Z,27.07
2018-03-06T15:45:21.675Z,29.17
2018-03-06T15:47:52.292Z,28.20
2018-03-06T15:50:23.232Z,28.50
2018-03-06T15:52:53.631Z,25.20
2018-03-06T15:55:24.286Z,26.53
2018-03-06T15:57:55.630Z,25.83
2018-03-06T16:00:26.378Z,26.23
2018-03-06T16:02:57.397Z,25.50
2018-03-06T16:05:28.031Z,27.07
2018-03-06T16:07:58.573Z,25.03
2018-03-06T16:10:29.494Z,24.83
2018-03-06T16:13:00.794Z,24.27
2018-03-06T16:15:31.364Z,25.43
2018-03-06T16:18:01.591Z,25.53
2018-03-06T16:20:32.142Z,27.53
2018-03-06T16:23:02.765Z,27.03
2018-03-06T16:25:33.611Z,25.03
2018-03-06T16:28:04.307Z,27.87
2018-03-06T16:30:35.338Z,26.80
2018-03-06T16:33:05.800Z,25.77
2018-03-06T16:35:36.652Z,25.57
2018-03-06T16:38:07.264Z,24.13
2018-03-06T16:40:37.779Z,24.83
2018-03-06T16:43:08.468Z,24.63
2018-03-06T16:45:39.137Z,24.33
2018-03-06T16:48:09.900Z,24.53
2018-03-06T16:50:40.441Z,22.07
2018-03-06T16:53:11.675Z,24.33
2018-03-06T16:55:42.421Z,25.80
2018-03-06T16:58:13.046Z,27.20
2018-03-06T17:00:44.161Z,24.50
2018-03-06T17:03:15.535Z,25.93
2018-03-06T17:05:46.267Z,28.30
2018-03-06T17:08:16.598Z,29.87
2018-03-06T17:10:47.957Z,29.53
2018-03-06T17:13:18.380Z,32.80
2018-03-06T17:15:49.713Z,34.97
2018-03-06T17:18:20.489Z,35.53
2018-03-06T17:20:51.319Z,38.20
2018-03-06T17:23:22.229Z,35.73
2018-03-06T17:25:52.456Z,36.87
2018-03-06T17:28:23.340Z,35.23
2018-03-06T17:30:54.032Z,32.70
2018-03-06T17:33:24.668Z,32.07
2018-03-06T17:35:54.983Z,29.70
2018-03-06T17:38:25.913Z,28.50
2018-03-06T17:40:56.440Z,28.40
2018-03-06T17:43:26.864Z,28.27
2018-03-06T17:45:57.510Z,29.53
2018-03-06T17:48:28.245Z,27.87
2018-03-06T17:50:58.974Z,24.77
2018-03-06T17:53:30.000Z,27.40
2018-03-06T17:56:00.551Z,25.83
2018-03-06T17:58:31.401Z,28.97
2018-03-06T18:01:01.797Z,28.37
2018-03-06T18:03:32.334Z,30.33
2018-03-06T18:06:02.460Z,25.87
2018-03-06T18:08:32.990Z,29.53
2018-03-06T18:11:03.000Z,31.57
2018-03-06T18:13:33.440Z,29.23
2018-03-06T18:16:04.409Z,25.53
2018-03-06T18:18:35.250Z,25.17
2018-03-06T18:21:05.991Z,25.50
2018-03-06T18:23:37.163Z,26.77
2018-03-06T18:26:07.703Z,25.80
2018-03-06T18:28:38.572Z,29.40
2018-03-06T18:31:09.353Z,30.70
2018-03-06T18:33:39.306Z,30.63
2018-03-06T18:36:09.318Z,30.80
2018-03-06T18:38:40.402Z,35.27
2018-03-06T18:41:11.567Z,33.17
2018-03-06T18:43:42.664Z,31.27
2018-03-06T18:46:14.162Z,30.53
2018-03-06T18:48:45.800Z,28.13
2018-03-06T18:51:16.851Z,27.07
2018-03-06T18:53:47.850Z,27.17
2018-03-06T18:56:18.865Z,24.80
2018-03-06T18:58:49.958Z,25.80
2018-03-06T19:01:41.815Z,26.00
2018-03-06T19:04:24.546Z,25.57
2018-03-06T19:07:07.855Z,26.87
2018-03-06T19:09:39.264Z,25.13
2018-03-06T19:12:10.247Z,26.03
2018-03-06T19:14:41.188Z,24.90
2018-03-06T19:17:12.992Z,23.83
2018-03-06T19:19:44.311Z,24.20
2018-03-06T19:22:15.835Z,25.27
2018-03-06T19:24:46.843Z,25.70
2018-03-06T19:27:18.958Z,25.17
2018-03-06T19:29:50.399Z,25.70
2018-03-06T19:32:22.360Z,27.13
2018-03-06T19:34:53.545Z,28.33
2018-03-06T19:37:24.388Z,28.03
2018-03-06T19:39:56.055Z,27.43
2018-03-06T19:42:26.852Z,26.73
2018-03-06T19:44:58.145Z,26.23
2018-03-06T19:47:29.211Z,26.83
2018-03-06T19:50:00.572Z,25.93
2018-03-06T19:52:32.105Z,27.33
2018-03-06T19:55:03.162Z,26.93
2018-03-06T19:57:34.582Z,27.63
2018-03-06T20:00:05.977Z,28.80
2018-03-06T20:02:37.244Z,29.20
2018-03-06T20:05:08.573Z,29.73
2018-03-06T20:07:39.474Z,30.47
2018-03-06T20:10:10.507Z,29.30
2018-03-06T20:12:41.500Z,30.37
2018-03-06T20:15:18.216Z,28.33
2018-03-06T20:17:49.013Z,28.63
2018-03-06T20:20:19.589Z,28.33
2018-03-06T20:22:50.314Z,25.10
2018-03-06T20:25:26.152Z,29.17
2018-03-06T20:27:56.910Z,27.77
2018-03-06T20:30:33.340Z,28.40
2018-03-06T20:33:09.623Z,34.87
2018-03-06T20:35:40.166Z,38.60
2018-03-06T20:38:16.726Z,36.73
2018-03-06T20:40:47.261Z,41.43
2018-03-06T20:43:18.336Z,43.63
2018-03-06T20:45:54.367Z,50.33
2018-03-06T20:48:24.750Z,48.97
2018-03-06T20:50:55.619Z,47.17
2018-03-06T20:53:32.122Z,44.20
2018-03-06T20:56:03.520Z,45.67
2018-03-06T20:58:34.247Z,43.90
2018-03-06T21:01:04.906Z,42.33
2018-03-06T21:03:35.643Z,43.27
2018-03-06T21:06:06.143Z,42.50
2018-03-06T21:08:36.597Z,41.50
2018-03-06T21:11:07.654Z,42.17
2018-03-06T21:13:38.173Z,40.17
2018-03-06T21:16:08.964Z,40.97
2018-03-06T21:18:40.338Z,41.40
2018-03-06T21:21:11.357Z,41.07
2018-03-06T21:23:42.013Z,40.27
2018-03-06T21:26:11.727Z,41.33
2018-03-06T21:28:42.058Z,41.90
2018-03-06T21:31:12.544Z,40.63
2018-03-06T21:33:42.900Z,39.50
2018-03-06T21:36:13.829Z,40.90
2018-03-06T21:38:44.253Z,38.87
2018-03-06T21:41:15.107Z,41.23
2018-03-06T21:43:45.535Z,39.30
2018-03-06T21:46:16.275Z,39.47
2018-03-06T21:48:47.660Z,37.40
2018-03-06T21:51:18.365Z,35.47
2018-03-06T21:53:49.133Z,36.13
2018-03-06T21:56:19.830Z,38.47
2018-03-06T21:58:50.475Z,40.70
2018-03-06T22:01:21.682Z,44.37
2018-03-06T22:03:52.139Z,45.77
2018-03-06T22:06:22.852Z,44.90
2018-03-06T22:08:53.353Z,46.47
2018-03-06T22:11:23.791Z,46.60
2018-03-06T22:13:53.740Z,41.50
2018-03-06T22:16:24.192Z,41.10
2018-03-06T22:18:55.021Z,41.07
2018-03-06T22:21:25.730Z,36.63
2018-03-06T22:23:56.237Z,39.07
2018-03-06T22:26:26.807Z,40.63
2018-03-06T22:28:57.261Z,42.33
2018-03-06T22:31:27.923Z,41.77
2018-03-06T22:33:59.365Z,40.60
2018-03-06T22:36:29.211Z,41.07
2018-03-06T22:38:59.495Z,39.70
2018-03-06T22:41:29.867Z,41.23
2018-03-06T22:44:00.299Z,39.17
2018-03-06T22:46:30.280Z,40.37
2018-03-06T22:49:00.190Z,40.30
2018-03-06T22:51:30.036Z,37.57
2018-03-06T22:53:59.848Z,39.03
2018-03-06T22:56:30.302Z,38.07
2018-03-06T22:59:00.599Z,36.33
2018-03-06T23:01:30.572Z,38.27
2018-03-06T23:04:00.328Z,37.00
2018-03-06T23:06:30.446Z,36.67
2018-03-06T23:09:00.470Z,36.10
2018-03-06T23:11:30.583Z,35.83
2018-03-06T23:14:00.398Z,36.20
2018-03-06T23:16:30.212Z,37.50
2018-03-06T23:19:00.706Z,35.27
2018-03-06T23:21:31.109Z,35.87
2018-03-06T23:24:01.489Z,35.80
2018-03-06T23:26:31.404Z,34.77
2018-03-06T23:29:01.878Z,33.07
2018-03-06T23:31:32.944Z,32.93
2018-03-06T23:34:03.909Z,31.63
2018-03-06T23:36:33.882Z,33.80
2018-03-06T23:39:04.564Z,34.33
2018-03-06T23:41:34.387Z,37.90
2018-03-06T23:44:04.393Z,50.20
2018-03-06T23:46:34.517Z,53.00
2018-03-06T23:49:04.938Z,46.10
2018-03-06T23:51:35.827Z,45.80
2018-03-06T23:54:05.794Z,52.83
2018-03-06T23:56:36.532Z,49.17
2018-03-06T23:59:06.438Z,47.70
